Time;durP1;ratioP1;P1;durP2;ratioP2;P2;SDS_P1;SDS_P2;PMS_P1;PMS_P2;Temp;Humidity;BMP_temperature;BMP_pressure;BME280_temperature;BME280_humidity;BME280_pressure;Samples;Min_cycle;Max_cycle;Signal;HPM_P1;HPM_P2
2022/11/06 00:02:15;;;;;;;12.75;5.68;;;;;;;;;;5261809;27;19929;-70
2022/11/06 00:04:40;;;;;;;9.60;5.30;;;;;;;;;;5261536;27;20028;-71
2022/11/06 00:07:06;;;;;;;12.52;5.60;;;;;;;;;;5261660;27;20001;-71
2022/11/06 00:09:31;;;;;;;;;;;;;;;;;;5262876;27;20416;-70
2022/11/06 00:11:57;;;;;;;14.57;6.40;;;;;;;;;;5262925;27;19939;-73
2022/11/06 00:14:22;;;;;;;24.33;6.55;;;;;;;;;;5260336;27;20009;-70
2022/11/06 00:16:47;;;;;;;13.80;6.10;;;;;;;;;;5262394;27;20040;-71
2022/11/06 00:19:12;;;;;;;14.48;5.62;;;;;;;;;;5262822;27;20388;-71
2022/11/06 00:21:37;;;;;;;12.70;6.22;;;;;;;;;;5263165;27;20008;-71
2022/11/06 00:24:04;;;;;;;19.73;5.65;;;;;;;;;;5261275;27;20076;-70
2022/11/06 00:26:30;;;;;;;12.75;6.32;;;;;;;;;;5261585;27;20020;-71
2022/11/06 00:28:55;;;;;;;;;;;;;;;;;;5263223;27;20001;-71
2022/11/06 00:31:30;;;;;;;13.38;5.75;;;;;;;;;;5261902;27;20309;-70
2022/11/06 00:33:56;;;;;;;12.73;5.93;;;;;;;;;;5243423;27;20112;-72
2022/11/06 00:36:22;;;;;;;14.68;5.97;;;;;;;;;;5260308;27;20009;-70
2022/11/06 00:38:50;;;;;;;9.80;5.75;;;;;;;;;;5261589;27;20320;-70
2022/11/06 00:41:16;;;;;;;10.98;6.75;;;;;;;;;;5260708;27;20017;-71
2022/11/06 00:43:41;;;;;;;;;;;;;;;;;;5263287;27;20002;-71
2022/11/06 00:46:07;;;;;;;12.15;6.05;;;;;;;;;;5262715;27;19984;-71
2022/11/06 00:48:33;;;;;;;14.70;6.53;;;;;;;;;;5263095;27;20001;-71
2022/11/06 00:50:58;;;;;;;;;;;;;;;;;;5260795;27;20328;-71
2022/11/06 00:53:23;;;;;;;11.73;5.40;;;;;;;;;;5263020;27;19990;-71
2022/11/06 00:55:48;;;;;;;12.70;5.78;;;;;;;;;;5262958;27;20002;-70
2022/11/06 00:58:14;;;;;;;;;;;;;;;;;;5262436;27;20035;-71
2022/11/06 01:00:39;;;;;;;15.05;5.65;;;;;;;;;;5260384;27;20284;-70
2022/11/06 01:03:04;;;;;;;14.40;5.78;;;;;;;;;;5261499;27;20002;-70
2022/11/06 01:05:29;;;;;;;15.85;6.53;;;;;;;;;;5262758;27;20005;-70
2022/11/06 01:07:54;;;;;;;16.77;6.15;;;;;;;;;;5260516;27;20002;-71
2022/11/06 01:10:19;;;;;;;13.07;5.20;;;;;;;;;;5263503;27;20002;-71
2022/11/06 01:12:45;;;;;;;9.57;5.30;;;;;;;;;;5263619;27;20002;-70
2022/11/06 01:15:10;;;;;;;12.27;6.15;;;;;;;;;;5261467;27;20038;-71
2022/11/06 01:17:35;;;;;;;16.60;5.62;;;;;;;;;;5258867;27;20005;-72
2022/11/06 01:20:00;;;;;;;13.20;5.22;;;;;;;;;;5240667;27;20025;-72
2022/11/06 01:22:26;;;;;;;16.45;5.60;;;;;;;;;;5261882;27;20024;-71
2022/11/06 01:24:51;;;;;;;10.65;5.47;;;;;;;;;;5261550;27;20002;-72
2022/11/06 01:27:16;;;;;;;;;;;;;;;;;;5261096;27;20324;-70
2022/11/06 01:29:41;;;;;;;15.70;5.60;;;;;;;;;;5261915;27;19940;-71
2022/11/06 01:32:06;;;;;;;;;;;;;;;;;;5262674;27;20109;-71
2022/11/06 01:34:31;;;;;;;14.73;6.12;;;;;;;;;;5261005;27;20243;-71
2022/11/06 01:36:57;;;;;;;12.25;5.80;;;;;;;;;;5262579;27;20002;-72
2022/11/06 01:39:22;;;;;;;10.73;4.93;;;;;;;;;;5261069;27;20002;-71
2022/11/06 01:41:47;;;;;;;;;;;;;;;;;;5261324;27;20010;-70
2022/11/06 01:44:31;;;;;;;13.62;5.47;;;;;;;;;;5261336;27;20004;-70
2022/11/06 01:46:56;;;;;;;14.27;5.93;;;;;;;;;;5261328;27;20029;-71
2022/11/06 01:49:21;;;;;;;;;;;;;;;;;;5241485;27;20035;-71
2022/11/06 01:51:49;;;;;;;17.90;6.00;;;;;;;;;;5260143;27;19929;-70
2022/11/06 01:54:15;;;;;;;18.23;5.53;;;;;;;;;;5262642;27;20005;-70
2022/11/06 01:56:40;;;;;;;;;;;;;;;;;;5262467;27;20001;-70
2022/11/06 01:59:07;;;;;;;15.75;5.10;;;;;;;;;;5258656;27;19929;-71
2022/11/06 02:01:32;;;;;;;15.10;5.25;;;;;;;;;;5261966;27;20101;-71
2022/11/06 02:03:57;;;;;;;;;;;;;;;;;;5260706;27;20011;-71
2022/11/06 02:06:23;;;;;;;20.67;6.35;;;;;;;;;;5262789;27;20335;-72
2022/11/06 02:08:48;;;;;;;;;;;;;;;;;;5241209;27;19997;-70
2022/11/06 02:11:13;;;;;;;18.55;5.55;;;;;;;;;;5261136;27;20380;-71
2022/11/06 02:13:38;;;;;;;;;;;;;;;;;;5262826;27;20094;-71
2022/11/06 02:16:22;;;;;;;13.30;5.20;;;;;;;;;;5260912;27;20352;-71
2022/11/06 02:18:50;;;;;;;8.98;4.55;;;;;;;;;;5261087;27;20385;-70
2022/11/06 02:21:16;;;;;;;26.25;6.00;;;;;;;;;;5258564;27;20381;-71
2022/11/06 02:23:41;;;;;;;;;;;;;;;;;;5258853;27;20024;-71
2022/11/06 02:26:06;;;;;;;14.73;5.50;;;;;;;;;;5262850;27;20246;-70
2022/11/06 02:28:35;;;;;;;20.08;6.93;;;;;;;;;;5262549;27;20056;-70
2022/11/06 02:31:04;;;;;;;19.77;7.00;;;;;;;;;;5260614;27;20010;-70
2022/11/06 02:33:32;;;;;;;18.62;7.43;;;;;;;;;;5262025;27;20418;-71
2022/11/06 02:36:04;;;;;;;18.55;7.10;;;;;;;;;;5261466;27;20005;-72
2022/11/06 02:38:32;;;;;;;15.30;5.97;;;;;;;;;;5259684;27;20006;-72
2022/11/06 02:41:01;;;;;;;19.87;6.22;;;;;;;;;;5260272;27;20021;-72
2022/11/06 02:43:31;;;;;;;16.85;7.22;;;;;;;;;;5262350;27;20109;-72
2022/11/06 02:45:58;;;;;;;16.50;6.20;;;;;;;;;;5241951;27;20036;-71
2022/11/06 02:48:27;;;;;;;15.80;5.57;;;;;;;;;;5260809;27;20033;-71
2022/11/06 02:50:53;;;;;;;18.48;6.95;;;;;;;;;;5243298;27;20002;-71
2022/11/06 02:53:21;;;;;;;19.48;6.62;;;;;;;;;;5262646;27;20005;-70
2022/11/06 02:55:48;;;;;;;15.98;6.35;;;;;;;;;;5262723;27;20320;-70
2022/11/06 02:58:19;;;;;;;15.63;6.87;;;;;;;;;;5262027;27;20071;-70
2022/11/06 03:00:47;;;;;;;15.60;5.80;;;;;;;;;;5240349;27;20347;-70
2022/11/06 03:03:24;;;;;;;18.40;7.07;;;;;;;;;;5240369;27;20312;-71
2022/11/06 03:05:55;;;;;;;15.63;6.10;;;;;;;;;;5261138;27;20072;-72
2022/11/06 03:08:20;;;;;;;19.70;7.03;;;;;;;;;;5259513;27;19993;-73
2022/11/06 03:10:50;;;;;;;14.45;6.53;;;;;;;;;;5258326;27;19993;-72
2022/11/06 03:13:18;;;;;;;16.33;6.10;;;;;;;;;;5262353;27;20042;-71
2022/11/06 03:15:59;;;;;;;11.40;6.07;;;;;;;;;;5261307;27;20009;-72
2022/11/06 03:18:38;;;;;;;12.88;6.32;;;;;;;;;;5242138;27;19986;-72
2022/11/06 03:21:09;;;;;;;18.90;6.28;;;;;;;;;;5260518;27;20001;-72
2022/11/06 03:23:35;;;;;;;14.30;6.43;;;;;;;;;;5261896;27;20476;-71
2022/11/06 03:26:08;;;;;;;10.57;5.65;;;;;;;;;;5260170;27;20029;-72
2022/11/06 03:28:35;;;;;;;11.52;5.90;;;;;;;;;;5260320;27;20025;-71
2022/11/06 03:31:01;;;;;;;13.80;6.05;;;;;;;;;;5260073;27;20016;-70
2022/11/06 03:33:37;;;;;;;14.23;5.68;;;;;;;;;;5259296;27;20142;-72
2022/11/06 03:36:07;;;;;;;18.12;6.45;;;;;;;;;;5259848;27;20022;-71
2022/11/06 03:38:35;;;;;;;23.90;7.45;;;;;;;;;;5262428;27;20043;-71
2022/11/06 03:41:03;;;;;;;17.87;6.03;;;;;;;;;;5259323;27;20025;-71
2022/11/06 03:43:30;;;;;;;15.93;6.82;;;;;;;;;;5261651;27;20013;-70
2022/11/06 03:45:56;;;;;;;14.90;7.47;;;;;;;;;;5259296;27;20025;-71
2022/11/06 03:48:21;;;;;;;;;;;;;;;;;;5262393;27;20407;-71
2022/11/06 03:50:49;;;;;;;19.12;7.37;;;;;;;;;;5258244;27;19947;-71
2022/11/06 03:53:38;;;;;;;20.70;8.40;;;;;;;;;;5260089;27;20004;-71
2022/11/06 03:56:15;;;;;;;20.70;8.32;;;;;;;;;;5252846;27;20049;-70
2022/11/06 03:58:43;;;;;;;19.05;7.05;;;;;;;;;;5260584;27;19997;-71
2022/11/06 04:01:09;;;;;;;16.42;6.85;;;;;;;;;;5261911;27;20332;-71
2022/11/06 04:03:38;;;;;;;18.80;6.62;;;;;;;;;;5260952;27;20049;-71
2022/11/06 04:06:11;;;;;;;17.15;6.78;;;;;;;;;;5261872;27;20075;-71
2022/11/06 04:14:08;;;;;;;15.43;5.93;;;;;;;;;;5261014;27;20008;-70
2022/11/06 04:16:33;;;;;;;;;;;;;;;;;;5259839;27;20002;-70
2022/11/06 04:18:58;;;;;;;12.63;5.68;;;;;;;;;;5259489;27;19963;-71
2022/11/06 04:21:26;;;;;;;;;;;;;;;;;;5262337;27;20560;-71
2022/11/06 04:26:57;;;;;;;20.55;7.12;;;;;;;;;;5261949;27;20032;-71
2022/11/06 04:29:31;;;;;;;12.88;5.87;;;;;;;;;;5257876;27;20013;-70
2022/11/06 04:31:59;;;;;;;14.20;5.87;;;;;;;;;;5258021;27;20028;-72
2022/11/06 04:34:35;;;;;;;16.15;6.95;;;;;;;;;;5259515;27;20006;-72
2022/11/06 04:37:05;;;;;;;17.20;7.77;;;;;;;;;;5260429;27;20008;-71
2022/11/06 04:39:54;;;;;;;19.23;6.68;;;;;;;;;;5259610;27;20094;-69
2022/11/06 04:42:19;;;;;;;13.45;6.70;;;;;;;;;;5253909;27;20020;-70
2022/11/06 04:44:44;;;;;;;;;;;;;;;;;;5262566;27;20018;-70
2022/11/06 04:47:11;;;;;;;18.17;6.72;;;;;;;;;;5260240;27;19958;-70
2022/11/06 04:49:39;;;;;;;13.43;5.60;;;;;;;;;;5261881;27;20012;-70
2022/11/06 04:52:06;;;;;;;16.48;7.37;;;;;;;;;;5261553;27;20046;-70
2022/11/06 04:54:31;;;;;;;12.68;6.03;;;;;;;;;;5259536;27;20003;-70
2022/11/06 04:56:56;;;;;;;;;;;;;;;;;;5263319;27;20062;-71
2022/11/06 04:59:22;;;;;;;22.60;5.97;;;;;;;;;;5261665;27;19929;-70
2022/11/06 05:01:47;;;;;;;15.07;5.60;;;;;;;;;;5261513;27;20013;-71
2022/11/06 05:04:12;;;;;;;15.40;4.75;;;;;;;;;;5261590;27;20044;-70
2022/11/06 05:06:38;;;;;;;16.50;6.15;;;;;;;;;;5263071;27;20006;-71
2022/11/06 05:09:03;;;;;;;;;;;;;;;;;;5263748;27;20383;-71
2022/11/06 05:11:28;;;;;;;17.25;6.45;;;;;;;;;;5262867;27;19928;-71
2022/11/06 05:13:53;;;;;;;14.25;6.40;;;;;;;;;;5260935;27;20108;-71
2022/11/06 05:16:18;;;;;;;14.63;7.72;;;;;;;;;;5261123;27;20001;-70
2022/11/06 05:18:43;;;;;;;13.52;6.85;;;;;;;;;;5261003;27;20060;-70
2022/11/06 05:23:53;;;;;;;18.05;8.32;;;;;;;;;;5262207;27;20021;-70
2022/11/06 05:26:18;;;;;;;;;;;;;;;;;;5262975;27;20047;-72
2022/11/06 05:28:43;;;;;;;15.32;7.37;;;;;;;;;;5262951;27;19928;-72
2022/11/06 05:31:08;;;;;;;;;;;;;;;;;;5262593;27;20393;-71
2022/11/06 05:33:33;;;;;;;17.10;6.43;;;;;;;;;;5260369;27;19938;-71
2022/11/06 05:36:05;;;;;;;16.67;6.80;;;;;;;;;;5260828;27;20006;-72
2022/11/06 05:38:30;;;;;;;15.25;6.75;;;;;;;;;;5263399;27;20039;-71
2022/11/06 05:40:55;;;;;;;;;;;;;;;;;;5260658;27;20029;-71
2022/11/06 05:43:20;;;;;;;22.92;6.70;;;;;;;;;;5258909;27;20310;-71
2022/11/06 05:45:46;;;;;;;21.05;7.22;;;;;;;;;;5260175;27;20040;-71
2022/11/06 05:48:11;;;;;;;16.48;6.93;;;;;;;;;;5258885;27;20024;-71
2022/11/06 05:50:36;;;;;;;13.73;6.62;;;;;;;;;;5260135;27;20028;-71
2022/11/06 05:53:01;;;;;;;16.83;6.30;;;;;;;;;;5260601;27;20038;-70
2022/11/06 05:55:26;;;;;;;12.02;6.43;;;;;;;;;;5262680;27;20335;-71
2022/11/06 05:57:51;;;;;;;;;;;;;;;;;;5261807;27;20032;-70
2022/11/06 06:00:17;;;;;;;16.10;6.53;;;;;;;;;;5262600;27;20310;-70
2022/11/06 06:02:42;;;;;;;20.55;6.65;;;;;;;;;;5260296;27;20001;-70
2022/11/06 06:05:07;;;;;;;;;;;;;;;;;;5260609;27;20391;-70
2022/11/06 06:07:32;;;;;;;17.33;7.40;;;;;;;;;;5260055;27;20040;-71
2022/11/06 06:09:57;;;;;;;18.37;6.97;;;;;;;;;;5260267;27;20002;-71
2022/11/06 06:12:25;;;;;;;;;;;;;;;;;;5263463;27;20332;-70
2022/11/06 06:14:50;;;;;;;15.85;6.15;;;;;;;;;;5259584;27;19924;-71
2022/11/06 06:17:15;;;;;;;;;;;;;;;;;;5260940;27;20016;-70
2022/11/06 06:19:41;;;;;;;15.18;6.65;;;;;;;;;;5262167;27;19941;-69
2022/11/06 06:22:06;;;;;;;13.27;6.12;;;;;;;;;;5260108;27;20450;-70
2022/11/06 06:24:31;;;;;;;;;;;;;;;;;;5262715;27;20411;-69
2022/11/06 06:26:56;;;;;;;16.08;7.20;;;;;;;;;;5262310;27;19939;-70
2022/11/06 06:29:21;;;;;;;;;;;;;;;;;;5263189;27;20441;-71
2022/11/06 06:31:48;;;;;;;14.68;6.25;;;;;;;;;;5259957;27;19929;-70
2022/11/06 06:34:14;;;;;;;22.02;7.18;;;;;;;;;;5259885;27;20039;-69
2022/11/06 06:36:39;;;;;;;;;;;;;;;;;;5261073;27;20002;-69
2022/11/06 06:39:04;;;;;;;12.43;5.25;;;;;;;;;;5262369;27;20216;-71
2022/11/06 06:41:29;;;;;;;12.37;5.70;;;;;;;;;;5261608;27;20056;-69
2022/11/06 06:43:54;;;;;;;;;;;;;;;;;;5261316;27;20139;-69
2022/11/06 06:46:19;;;;;;;12.02;4.82;;;;;;;;;;5262426;27;19944;-70
2022/11/06 06:48:45;;;;;;;;;;;;;;;;;;5262999;27;20002;-70
2022/11/06 06:51:10;;;;;;;12.88;4.40;;;;;;;;;;5262583;27;19947;-71
2022/11/06 06:53:35;;;;;;;;;;;;;;;;;;5260449;27;20094;-71
2022/11/06 06:56:00;;;;;;;9.65;4.32;;;;;;;;;;5262406;27;19980;-70
2022/11/06 06:58:26;;;;;;;13.38;4.57;;;;;;;;;;5261919;27;20049;-70
2022/11/06 07:00:51;;;;;;;10.88;4.90;;;;;;;;;;5262031;27;20040;-70
2022/11/06 07:03:16;;;;;;;14.55;4.32;;;;;;;;;;5259713;27;20016;-71
2022/11/06 07:05:41;;;;;;;11.68;4.03;;;;;;;;;;5260738;27;20058;-71
2022/11/06 07:08:07;;;;;;;14.95;4.62;;;;;;;;;;5262619;27;20048;-71
2022/11/06 07:10:32;;;;;;;;;;;;;;;;;;5259935;27;20017;-71
2022/11/06 07:13:00;;;;;;;16.48;4.35;;;;;;;;;;5259462;27;20342;-71
2022/11/06 07:15:26;;;;;;;10.57;3.83;;;;;;;;;;5260984;27;20305;-71
2022/11/06 07:17:51;;;;;;;;;;;;;;;;;;5260328;27;20001;-70
2022/11/06 07:20:16;;;;;;;9.45;4.00;;;;;;;;;;5262229;27;19936;-70
2022/11/06 07:22:41;;;;;;;9.52;3.83;;;;;;;;;;5260259;27;20411;-70
2022/11/06 07:25:06;;;;;;;12.43;4.05;;;;;;;;;;5262098;27;20007;-70
2022/11/06 07:27:32;;;;;;;9.13;3.60;;;;;;;;;;5261997;27;20005;-71
2022/11/06 07:29:59;;;;;;;13.98;4.15;;;;;;;;;;5258788;27;20013;-70
2022/11/06 07:32:24;;;;;;;10.02;3.92;;;;;;;;;;5259784;27;20091;-71
2022/11/06 07:34:49;;;;;;;;;;;;;;;;;;5258370;27;20009;-70
2022/11/06 07:37:14;;;;;;;9.10;2.97;;;;;;;;;;5259380;27;19955;-71
2022/11/06 07:39:39;;;;;;;13.64;3.22;;;;;;;;;;5260021;27;20404;-71
2022/11/06 07:42:05;;;;;;;;;;;;;;;;;;5260772;27;20002;-70
2022/11/06 07:44:30;;;;;;;13.18;3.70;;;;;;;;;;5262111;27;19939;-71
2022/11/06 07:46:55;;;;;;;15.02;3.60;;;;;;;;;;5259094;27;20056;-71
2022/11/06 07:49:20;;;;;;;14.32;3.35;;;;;;;;;;5261419;27;20431;-70
2022/11/06 07:51:45;;;;;;;6.47;3.33;;;;;;;;;;5259776;27;20006;-70
2022/11/06 07:54:10;;;;;;;;;;;;;;;;;;5262864;27;20002;-70
2022/11/06 07:56:35;;;;;;;6.70;2.97;;;;;;;;;;5259670;27;20294;-71
2022/11/06 07:59:01;;;;;;;;;;;;;;;;;;5260418;27;20097;-71
2022/11/06 08:01:26;;;;;;;13.90;3.08;;;;;;;;;;5260073;27;20279;-71
2022/11/06 08:03:51;;;;;;;7.82;3.17;;;;;;;;;;5259690;27;20009;-71
2022/11/06 08:06:16;;;;;;;11.25;3.22;;;;;;;;;;5261416;27;20015;-70
2022/11/06 08:08:41;;;;;;;11.00;2.92;;;;;;;;;;5259225;27;20349;-70
2022/11/06 08:11:07;;;;;;;10.30;3.00;;;;;;;;;;5260036;27;20005;-70
2022/11/06 08:13:33;;;;;;;8.52;2.70;;;;;;;;;;5261594;27;20053;-71
2022/11/06 08:15:59;;;;;;;;;;;;;;;;;;5260445;27;20002;-70
2022/11/06 08:18:24;;;;;;;10.52;3.30;;;;;;;;;;5259390;27;19929;-70
2022/11/06 08:20:49;;;;;;;;;;;;;;;;;;5259677;27;20469;-71
2022/11/06 08:23:14;;;;;;;11.10;3.17;;;;;;;;;;5258014;27;20303;-70
2022/11/06 08:25:39;;;;;;;12.07;2.87;;;;;;;;;;5261444;27;20001;-71
2022/11/06 08:28:04;;;;;;;10.95;3.00;;;;;;;;;;5259096;27;20316;-71
2022/11/06 08:30:30;;;;;;;6.82;2.85;;;;;;;;;;5261300;27;20016;-70
2022/11/06 08:32:59;;;;;;;9.32;3.37;;;;;;;;;;5241239;27;20002;-70
2022/11/06 08:35:24;;;;;;;10.35;3.08;;;;;;;;;;5261575;27;20383;-71
2022/11/06 08:37:49;;;;;;;;;;;;;;;;;;5263109;27;20001;-70
2022/11/06 08:40:14;;;;;;;12.13;3.15;;;;;;;;;;5260618;27;19987;-70
2022/11/06 08:42:40;;;;;;;8.50;3.08;;;;;;;;;;5261402;27;20346;-72
2022/11/06 08:45:05;;;;;;;10.60;3.50;;;;;;;;;;5260405;27;20001;-72
2022/11/06 08:47:30;;;;;;;;;;;;;;;;;;5243369;27;20006;-71
2022/11/06 08:49:55;;;;;;;9.82;4.03;;;;;;;;;;5261463;27;19929;-72
2022/11/06 08:52:20;;;;;;;9.57;4.25;;;;;;;;;;5262619;27;20050;-72
2022/11/06 08:54:46;;;;;;;10.80;3.80;;;;;;;;;;5261177;27;20001;-71
2022/11/06 08:57:11;;;;;;;11.02;3.53;;;;;;;;;;5263469;27;20330;-70
2022/11/06 08:59:36;;;;;;;8.38;3.72;;;;;;;;;;5262377;27;20013;-71
2022/11/06 09:02:01;;;;;;;8.85;3.80;;;;;;;;;;5262139;27;20002;-69
2022/11/06 09:04:27;;;;;;;14.02;5.07;;;;;;;;;;5262826;27;20347;-70
2022/11/06 09:06:52;;;;;;;;;;;;;;;;;;5260834;27;20006;-69
2022/11/06 09:09:17;;;;;;;9.43;3.45;;;;;;;;;;5260977;27;19947;-69
2022/11/06 09:11:42;;;;;;;12.63;4.18;;;;;;;;;;5262409;27;20006;-70
2022/11/06 09:14:07;;;;;;;11.68;3.53;;;;;;;;;;5260140;27;20057;-69
2022/11/06 09:16:32;;;;;;;10.68;3.33;;;;;;;;;;5259989;27;20069;-71
2022/11/06 09:18:58;;;;;;;11.10;3.25;;;;;;;;;;5260296;27;20407;-68
2022/11/06 09:21:23;;;;;;;11.25;3.45;;;;;;;;;;5262430;27;20029;-68
2022/11/06 09:23:48;;;;;;;;;;;;;;;;;;5260573;27;20045;-69
2022/11/06 09:26:14;;;;;;;10.38;3.28;;;;;;;;;;5260020;27;20303;-69
2022/11/06 09:28:39;;;;;;;;;;;;;;;;;;5261931;27;20369;-70
2022/11/06 09:31:04;;;;;;;11.80;3.72;;;;;;;;;;5259732;27;19967;-69
2022/11/06 09:33:29;;;;;;;11.05;3.10;;;;;;;;;;5259925;27;20079;-70
2022/11/06 09:35:54;;;;;;;11.85;3.17;;;;;;;;;;5262178;27;20011;-70
2022/11/06 09:38:20;;;;;;;9.10;2.97;;;;;;;;;;5261074;27;20057;-70
2022/11/06 09:40:56;;;;;;;7.30;3.58;;;;;;;;;;5259646;27;20129;-69
2022/11/06 09:43:40;;;;;;;6.97;2.97;;;;;;;;;;5261967;27;20013;-68
2022/11/06 09:46:12;;;;;;;15.15;3.92;;;;;;;;;;5262293;27;20066;-69
2022/11/06 09:48:41;;;;;;;7.78;2.28;;;;;;;;;;5262780;27;20020;-70
2022/11/06 09:51:17;;;;;;;7.72;2.90;;;;;;;;;;5262094;27;20025;-69
2022/11/06 09:53:51;;;;;;;5.72;2.55;;;;;;;;;;5262716;27;20004;-69
2022/11/06 09:56:17;;;;;;;14.60;3.53;;;;;;;;;;5260606;27;20376;-69
2022/11/06 09:58:42;;;;;;;6.70;2.40;;;;;;;;;;5261857;27;20001;-69
2022/11/06 10:01:08;;;;;;;;;;;;;;;;;;5262336;27;20002;-70
2022/11/06 10:03:42;;;;;;;8.32;2.70;;;;;;;;;;5260434;27;19929;-70
2022/11/06 10:06:07;;;;;;;7.90;2.20;;;;;;;;;;5259617;27;20036;-71
2022/11/06 10:08:32;;;;;;;;;;;;;;;;;;5262535;27;20316;-71
2022/11/06 10:11:13;;;;;;;11.73;2.60;;;;;;;;;;5261396;27;19935;-71
2022/11/06 10:13:56;;;;;;;12.48;2.45;;;;;;;;;;5262466;27;20010;-70
2022/11/06 10:16:40;;;;;;;7.30;2.67;;;;;;;;;;5260282;27;20025;-70
2022/11/06 10:19:08;;;;;;;10.80;2.75;;;;;;;;;;5262370;27;20009;-70
2022/11/06 10:21:43;;;;;;;11.45;2.70;;;;;;;;;;5259425;27;20038;-71
2022/11/06 10:24:17;;;;;;;8.32;2.95;;;;;;;;;;5261933;27;20001;-71
2022/11/06 10:26:47;;;;;;;6.53;2.70;;;;;;;;;;5261902;27;19994;-69
2022/11/06 10:29:32;;;;;;;7.07;2.22;;;;;;;;;;5258414;27;20016;-71
2022/11/06 10:32:11;;;;;;;14.60;2.53;;;;;;;;;;5259451;27;20381;-72
2022/11/06 10:34:39;;;;;;;7.05;2.58;;;;;;;;;;5262352;27;19993;-71
2022/11/06 10:37:12;;;;;;;4.25;2.25;;;;;;;;;;5262282;27;20055;-69
2022/11/06 10:39:37;;;;;;;11.12;3.83;;;;;;;;;;5260415;27;20018;-71
2022/11/06 10:42:02;;;;;;;;;;;;;;;;;;5241904;27;20309;-71
2022/11/06 10:44:31;;;;;;;9.02;2.53;;;;;;;;;;5259532;27;19936;-72
2022/11/06 10:47:03;;;;;;;5.72;2.33;;;;;;;;;;5259399;27;20009;-72
2022/11/06 10:49:34;;;;;;;5.10;2.00;;;;;;;;;;5261627;27;20002;-70
2022/11/06 10:51:59;;;;;;;11.27;2.47;;;;;;;;;;5260332;27;20000;-71
2022/11/06 10:54:24;;;;;;;;;;;;;;;;;;5260633;27;19997;-70
2022/11/06 10:56:59;;;;;;;10.20;3.08;;;;;;;;;;5261349;27;19948;-72
2022/11/06 10:59:24;;;;;;;4.95;2.08;;;;;;;;;;5260124;27;20059;-71
2022/11/06 11:01:49;;;;;;;;;;;;;;;;;;5259742;27;20010;-71
2022/11/06 11:04:14;;;;;;;6.95;2.35;;;;;;;;;;5259537;27;20298;-71
2022/11/06 11:06:40;;;;;;;;;;;;;;;;;;5260351;27;20098;-71
2022/11/06 11:09:25;;;;;;;10.88;2.97;;;;;;;;;;5261347;27;19959;-71
2022/11/06 11:11:50;;;;;;;10.00;3.20;;;;;;;;;;5259223;27;20011;-70
2022/11/06 11:14:15;;;;;;;;;;;;;;;;;;5262036;27;20006;-70
2022/11/06 11:16:43;;;;;;;12.98;2.85;;;;;;;;;;5260016;27;20294;-70
2022/11/06 11:19:14;;;;;;;9.05;3.78;;;;;;;;;;5258221;27;20006;-71
2022/11/06 11:21:50;;;;;;;5.40;2.37;;;;;;;;;;5259432;27;20005;-70
2022/11/06 11:24:15;;;;;;;14.60;5.47;;;;;;;;;;5260423;27;19993;-72
2022/11/06 11:26:45;;;;;;;18.27;6.32;;;;;;;;;;5259477;27;20005;-71
2022/11/06 11:29:13;;;;;;;13.75;4.37;;;;;;;;;;5261355;27;20021;-71
2022/11/06 11:31:38;;;;;;;17.60;6.68;;;;;;;;;;5259274;27;20016;-73
2022/11/06 11:34:03;;;;;;;;;;;;;;;;;;5260938;27;20033;-72
2022/11/06 11:36:48;;;;;;;11.30;3.53;;;;;;;;;;5261527;27;19944;-73
2022/11/06 11:39:14;;;;;;;9.25;2.85;;;;;;;;;;5261369;27;20004;-72
2022/11/06 11:41:40;;;;;;;7.05;2.70;;;;;;;;;;5240714;27;20069;-72
2022/11/06 11:44:05;;;;;;;;;;;;;;;;;;5259459;27;20002;-73
2022/11/06 11:46:31;;;;;;;7.97;2.50;;;;;;;;;;5260622;27;19940;-72
2022/11/06 11:48:57;;;;;;;7.85;3.25;;;;;;;;;;5240490;27;20022;-71
2022/11/06 11:51:36;;;;;;;7.90;3.60;;;;;;;;;;5261088;27;20043;-72
2022/11/06 11:54:05;;;;;;;6.60;2.92;;;;;;;;;;5259550;27;20040;-71
2022/11/06 11:56:31;;;;;;;8.23;3.03;;;;;;;;;;5262438;27;20020;-72
2022/11/06 11:58:56;;;;;;;;;;;;;;;;;;5262033;27;20002;-72
2022/11/06 12:01:33;;;;;;;11.23;3.15;;;;;;;;;;5258976;27;19928;-72
2022/11/06 12:03:58;;;;;;;9.05;2.67;;;;;;;;;;5261747;27;20032;-72
2022/11/06 12:06:23;;;;;;;;;;;;;;;;;;5262907;27;20417;-71
2022/11/06 12:08:53;;;;;;;10.43;4.93;;;;;;;;;;5260199;27;19962;-72
2022/11/06 12:11:27;;;;;;;29.75;14.38;;;;;;;;;;5260911;27;20281;-73
2022/11/06 12:14:11;;;;;;;10.27;4.12;;;;;;;;;;5263461;27;20021;-72
2022/11/06 12:16:36;;;;;;;11.75;3.30;;;;;;;;;;5260514;27;20002;-72
2022/11/06 12:19:01;;;;;;;;;;;;;;;;;;5263956;27;20006;-71
2022/11/06 12:21:29;;;;;;;13.18;3.37;;;;;;;;;;5263109;27;19929;-72
2022/11/06 12:23:57;;;;;;;10.57;3.62;;;;;;;;;;5261334;27;20038;-72
2022/11/06 12:26:41;;;;;;;11.25;3.10;;;;;;;;;;5258465;27;20072;-72
2022/11/06 12:29:08;;;;;;;11.98;3.35;;;;;;;;;;5261709;27;20024;-73
2022/11/06 12:31:39;;;;;;;12.93;3.85;;;;;;;;;;5262074;27;20048;-73
2022/11/06 12:34:06;;;;;;;9.95;4.15;;;;;;;;;;5259701;27;20039;-74
2022/11/06 12:36:38;;;;;;;10.23;4.22;;;;;;;;;;5261353;27;20384;-71
2022/11/06 12:39:04;;;;;;;13.93;3.65;;;;;;;;;;5261687;27;20042;-72
2022/11/06 12:41:34;;;;;;;13.05;3.47;;;;;;;;;;5258162;27;20074;-71
2022/11/06 12:43:59;;;;;;;10.98;4.03;;;;;;;;;;5262821;27;20043;-71
2022/11/06 12:46:24;;;;;;;;;;;;;;;;;;5258710;27;20017;-70
2022/11/06 12:49:08;;;;;;;12.07;3.85;;;;;;;;;;5262297;27;19972;-70
2022/11/06 12:51:59;;;;;;;8.18;3.83;;;;;;;;;;5260651;27;20013;-71
2022/11/06 12:54:38;;;;;;;9.73;4.62;;;;;;;;;;5261040;27;20033;-71
2022/11/06 12:57:18;;;;;;;12.68;4.47;;;;;;;;;;5259946;27;20010;-71
2022/11/06 12:59:55;;;;;;;12.15;3.75;;;;;;;;;;5260745;27;20050;-71
2022/11/06 13:02:28;;;;;;;10.93;3.97;;;;;;;;;;5262796;27;20001;-72
2022/11/06 13:04:59;;;;;;;9.55;3.67;;;;;;;;;;5260301;27;20020;-71
2022/11/06 13:07:25;;;;;;;10.13;3.75;;;;;;;;;;5261111;27;20052;-71
2022/11/06 13:09:52;;;;;;;14.55;3.28;;;;;;;;;;5260622;27;20046;-70
2022/11/06 13:12:22;;;;;;;12.57;4.00;;;;;;;;;;5259472;27;20024;-70
2022/11/06 13:15:04;;;;;;;10.88;3.62;;;;;;;;;;5261446;27;20016;-71
2022/11/06 13:17:34;;;;;;;11.12;3.25;;;;;;;;;;5258960;27;20050;-72
2022/11/06 13:20:18;;;;;;;16.48;4.93;;;;;;;;;;5262323;27;20022;-72
2022/11/06 13:22:55;;;;;;;8.15;2.97;;;;;;;;;;5260156;27;20013;-71
2022/11/06 13:25:25;;;;;;;10.40;3.35;;;;;;;;;;5259760;27;20061;-73
2022/11/06 13:27:56;;;;;;;8.75;3.70;;;;;;;;;;5262182;27;20010;-71
2022/11/06 13:30:23;;;;;;;9.32;2.95;;;;;;;;;;5259592;27;20012;-72
2022/11/06 13:33:11;;;;;;;13.23;5.10;;;;;;;;;;5259945;27;20032;-73
2022/11/06 13:35:38;;;;;;;10.23;3.78;;;;;;;;;;5261148;27;20026;-73
2022/11/06 13:38:05;;;;;;;12.65;3.72;;;;;;;;;;5262558;27;20052;-72
2022/11/06 13:40:44;;;;;;;17.75;4.57;;;;;;;;;;5257488;27;20029;-72
2022/11/06 13:43:13;;;;;;;15.27;4.25;;;;;;;;;;5262437;27;20010;-73
2022/11/06 13:45:41;;;;;;;10.32;4.03;;;;;;;;;;5260266;27;20364;-74
2022/11/06 13:48:09;;;;;;;9.77;4.87;;;;;;;;;;5259362;27;20001;-72
2022/11/06 13:50:43;;;;;;;16.80;4.15;;;;;;;;;;5259267;27;20036;-74
2022/11/06 13:53:23;;;;;;;10.70;3.92;;;;;;;;;;5259685;27;20041;-73
2022/11/06 13:55:55;;;;;;;10.70;4.60;;;;;;;;;;5260183;27;20001;-72
2022/11/06 13:58:24;;;;;;;16.48;4.95;;;;;;;;;;5261813;27;20035;-71
2022/11/06 14:01:04;;;;;;;15.75;4.85;;;;;;;;;;5259854;27;20002;-71
2022/11/06 14:03:41;;;;;;;11.52;4.00;;;;;;;;;;5260848;27;20061;-70
2022/11/06 14:06:36;;;;;;;11.80;4.85;;;;;;;;;;5262443;27;19993;-70
2022/11/06 14:09:05;;;;;;;13.40;4.30;;;;;;;;;;5250267;27;20002;-71
2022/11/06 14:11:35;;;;;;;12.05;4.32;;;;;;;;;;5261361;27;20044;-71
2022/11/06 14:14:02;;;;;;;14.38;5.15;;;;;;;;;;5260601;27;20054;-71
2022/11/06 14:16:28;;;;;;;11.70;4.10;;;;;;;;;;5258864;27;20051;-71
2022/11/06 14:18:59;;;;;;;16.25;4.15;;;;;;;;;;5260151;27;20013;-71
2022/11/06 14:21:24;;;;;;;14.45;4.55;;;;;;;;;;5240760;27;20387;-70
2022/11/06 14:23:49;;;;;;;;;;;;;;;;;;5260715;27;20035;-71
2022/11/06 14:26:34;;;;;;;18.10;4.55;;;;;;;;;;5259932;27;19960;-71
2022/11/06 14:29:20;;;;;;;12.70;4.60;;;;;;;;;;5261793;27;20037;-70
2022/11/06 14:31:59;;;;;;;16.67;4.82;;;;;;;;;;5242374;27;20431;-70
2022/11/06 14:34:28;;;;;;;10.80;4.40;;;;;;;;;;5259195;27;20033;-71
2022/11/06 14:36:54;;;;;;;13.88;4.18;;;;;;;;;;5262029;27;20032;-71
2022/11/06 14:39:19;;;;;;;;;;;;;;;;;;5262176;27;20376;-72
2022/11/06 14:41:52;;;;;;;10.48;4.15;;;;;;;;;;5261673;27;19956;-70
2022/11/06 14:44:25;;;;;;;12.05;4.55;;;;;;;;;;5259409;27;20048;-71
2022/11/06 14:46:56;;;;;;;11.57;5.10;;;;;;;;;;5262406;27;19994;-71
2022/11/06 14:49:28;;;;;;;10.02;5.10;;;;;;;;;;5260956;27;20001;-70
2022/11/06 14:52:04;;;;;;;12.35;4.68;;;;;;;;;;5259850;27;20312;-71
2022/11/06 14:54:30;;;;;;;13.13;5.75;;;;;;;;;;5242319;27;20006;-71
2022/11/06 14:56:55;;;;;;;;;;;;;;;;;;5262667;27;20045;-70
2022/11/06 14:59:26;;;;;;;11.43;4.72;;;;;;;;;;5257988;27;19976;-72
2022/11/06 15:02:04;;;;;;;9.45;4.15;;;;;;;;;;5262101;27;20127;-70
2022/11/06 15:04:32;;;;;;;15.00;5.03;;;;;;;;;;5259494;27;20031;-71
2022/11/06 15:07:05;;;;;;;18.05;4.25;;;;;;;;;;5261574;27;20080;-69
2022/11/06 15:09:37;;;;;;;12.98;4.87;;;;;;;;;;5240370;27;20420;-70
2022/11/06 15:12:03;;;;;;;11.93;4.50;;;;;;;;;;5261478;27;20360;-69